sensor_id;sensor_type;location;lat;lon;timestamp;pressure;altitude;pressure_sealevel;temperature;humidity
21638;BME280;10980;49.596;6.142;2023-02-28T00:00:18;99273.16;;;-0.79;100.00
21638;BME280;10980;49.596;6.142;2023-02-28T00:03:40;99276.56;;;-0.77;100.00
21638;BME280;10980;49.596;6.142;2023-02-28T00:07:02;99279.13;;;-0.76;100.00
21638;BME280;10980;49.596;6.142;2023-02-28T00:10:29;99277.53;;;-0.80;100.00
21638;BME280;10980;49.596;6.142;2023-02-28T00:13:52;99276.81;;;-0.85;100.00
21638;BME280;10980;49.596;6.142;2023-02-28T00:17:16;99278.00;;;-0.95;100.00
21638;BME280;10980;49.596;6.142;2023-02-28T00:20:43;99267.47;;;-0.92;100.00
21638;BME280;10980;49.596;6.142;2023-02-28T00:24:07;99267.28;;;-0.86;100.00
21638;BME280;10980;49.596;6.142;2023-02-28T00:27:29;99275.91;;;-0.84;100.00
21638;BME280;10980;49.596;6.142;2023-02-28T00:30:51;99274.00;;;-0.79;100.00
21638;BME280;10980;49.596;6.142;2023-02-28T00:34:15;99274.13;;;-0.82;100.00
21638;BME280;10980;49.596;6.142;2023-02-28T00:37:39;99263.25;;;-0.96;100.00
21638;BME280;10980;49.596;6.142;2023-02-28T00:41:01;99277.38;;;-0.75;100.00
21638;BME280;10980;49.596;6.142;2023-02-28T00:44:26;99276.03;;;-0.87;100.00
21638;BME280;10980;49.596;6.142;2023-02-28T00:47:48;99273.63;;;-0.95;100.00
21638;BME280;10980;49.596;6.142;2023-02-28T00:51:12;99278.63;;;-0.87;100.00
21638;BME280;10980;49.596;6.142;2023-02-28T00:54:34;99277.72;;;-0.86;100.00
21638;BME280;10980;49.596;6.142;2023-02-28T00:57:56;99284.47;;;-0.79;100.00
21638;BME280;10980;49.596;6.142;2023-02-28T01:01:20;99275.63;;;-0.75;100.00
21638;BME280;10980;49.596;6.142;2023-02-28T01:04:49;99283.59;;;-0.79;100.00
21638;BME280;10980;49.596;6.142;2023-02-28T01:08:14;99274.69;;;-0.72;100.00
21638;BME280;10980;49.596;6.142;2023-02-28T01:11:36;99278.97;;;-0.70;100.00
21638;BME280;10980;49.596;6.142;2023-02-28T01:14:58;99282.53;;;-0.72;100.00
21638;BME280;10980;49.596;6.142;2023-02-28T01:18:21;99288.06;;;-1.11;100.00
21638;BME280;10980;49.596;6.142;2023-02-28T01:21:43;99291.56;;;-1.12;100.00
21638;BME280;10980;49.596;6.142;2023-02-28T01:25:07;99286.03;;;-1.31;100.00
21638;BME280;10980;49.596;6.142;2023-02-28T01:28:29;99279.03;;;-1.29;100.00
21638;BME280;10980;49.596;6.142;2023-02-28T01:31:53;99282.19;;;-1.17;100.00
21638;BME280;10980;49.596;6.142;2023-02-28T01:35:16;99286.59;;;-1.21;100.00
21638;BME280;10980;49.596;6.142;2023-02-28T01:38:39;99272.00;;;-1.27;100.00
21638;BME280;10980;49.596;6.142;2023-02-28T01:42:01;99280.81;;;-1.31;100.00
21638;BME280;10980;49.596;6.142;2023-02-28T01:45:29;99281.66;;;-1.01;100.00
21638;BME280;10980;49.596;6.142;2023-02-28T01:48:59;99274.38;;;-0.91;100.00
21638;BME280;10980;49.596;6.142;2023-02-28T01:52:35;99278.84;;;-0.95;100.00
21638;BME280;10980;49.596;6.142;2023-02-28T01:55:59;99273.63;;;-0.95;100.00
21638;BME280;10980;49.596;6.142;2023-02-28T01:59:57;99267.19;;;-0.83;100.00
21638;BME280;10980;49.596;6.142;2023-02-28T02:03:22;99262.34;;;-0.95;100.00
21638;BME280;10980;49.596;6.142;2023-02-28T02:06:47;99272.63;;;-0.89;100.00
21638;BME280;10980;49.596;6.142;2023-02-28T02:10:29;99266.56;;;-0.91;100.00
21638;BME280;10980;49.596;6.142;2023-02-28T02:17:48;99265.97;;;-0.99;100.00
21638;BME280;10980;49.596;6.142;2023-02-28T02:25:19;99258.94;;;-0.97;100.00
21638;BME280;10980;49.596;6.142;2023-02-28T02:29:16;99252.09;;;-1.01;100.00
21638;BME280;10980;49.596;6.142;2023-02-28T02:33:24;99247.78;;;-1.02;100.00
21638;BME280;10980;49.596;6.142;2023-02-28T02:37:38;99253.22;;;-1.10;100.00
21638;BME280;10980;49.596;6.142;2023-02-28T02:44:49;99241.84;;;-1.37;100.00
21638;BME280;10980;49.596;6.142;2023-02-28T02:48:21;99241.94;;;-1.10;100.00
21638;BME280;10980;49.596;6.142;2023-02-28T02:51:47;99233.56;;;-1.22;100.00
21638;BME280;10980;49.596;6.142;2023-02-28T02:55:28;99246.66;;;-1.23;100.00
21638;BME280;10980;49.596;6.142;2023-02-28T02:58:56;99251.66;;;-1.15;100.00
21638;BME280;10980;49.596;6.142;2023-02-28T03:02:23;99252.63;;;-1.20;100.00
21638;BME280;10980;49.596;6.142;2023-02-28T03:05:51;99244.09;;;-1.25;100.00
21638;BME280;10980;49.596;6.142;2023-02-28T03:09:14;99246.81;;;-1.28;100.00
21638;BME280;10980;49.596;6.142;2023-02-28T03:12:50;99241.78;;;-1.34;100.00
21638;BME280;10980;49.596;6.142;2023-02-28T03:16:48;99245.91;;;-1.27;100.00
21638;BME280;10980;49.596;6.142;2023-02-28T03:20:31;99249.88;;;-1.43;100.00
21638;BME280;10980;49.596;6.142;2023-02-28T03:28:06;99245.72;;;-1.50;100.00
21638;BME280;10980;49.596;6.142;2023-02-28T03:31:39;99249.03;;;-1.43;100.00
21638;BME280;10980;49.596;6.142;2023-02-28T03:35:21;99249.63;;;-1.34;100.00
21638;BME280;10980;49.596;6.142;2023-02-28T03:39:04;99246.16;;;-1.36;100.00
21638;BME280;10980;49.596;6.142;2023-02-28T03:42:33;99252.38;;;-1.40;100.00
21638;BME280;10980;49.596;6.142;2023-02-28T03:46:01;99247.25;;;-1.43;100.00
21638;BME280;10980;49.596;6.142;2023-02-28T03:49:40;99241.41;;;-1.51;100.00
21638;BME280;10980;49.596;6.142;2023-02-28T03:53:29;99251.78;;;-1.48;100.00
21638;BME280;10980;49.596;6.142;2023-02-28T03:57:08;99254.69;;;-1.59;100.00
21638;BME280;10980;49.596;6.142;2023-02-28T04:00:38;99257.94;;;-1.52;100.00
21638;BME280;10980;49.596;6.142;2023-02-28T04:04:04;99251.88;;;-1.53;100.00
21638;BME280;10980;49.596;6.142;2023-02-28T04:07:30;99258.19;;;-1.60;100.00
21638;BME280;10980;49.596;6.142;2023-02-28T04:11:23;99256.16;;;-1.50;100.00
21638;BME280;10980;49.596;6.142;2023-02-28T04:14:45;99253.63;;;-1.53;100.00
21638;BME280;10980;49.596;6.142;2023-02-28T04:18:08;99267.75;;;-1.60;100.00
21638;BME280;10980;49.596;6.142;2023-02-28T04:21:46;99259.13;;;-1.62;100.00
21638;BME280;10980;49.596;6.142;2023-02-28T04:25:08;99258.00;;;-1.54;100.00
21638;BME280;10980;49.596;6.142;2023-02-28T04:28:30;99256.47;;;-1.61;100.00
21638;BME280;10980;49.596;6.142;2023-02-28T04:31:52;99247.25;;;-1.72;100.00
21638;BME280;10980;49.596;6.142;2023-02-28T04:35:15;99249.41;;;-1.57;100.00
21638;BME280;10980;49.596;6.142;2023-02-28T04:38:38;99255.63;;;-1.61;100.00
21638;BME280;10980;49.596;6.142;2023-02-28T04:42:00;99245.00;;;-1.55;100.00
21638;BME280;10980;49.596;6.142;2023-02-28T04:45:22;99250.31;;;-1.58;100.00
21638;BME280;10980;49.596;6.142;2023-02-28T04:48:44;99249.66;;;-1.66;100.00
21638;BME280;10980;49.596;6.142;2023-02-28T04:52:12;99251.38;;;-1.65;100.00
21638;BME280;10980;49.596;6.142;2023-02-28T04:55:43;99248.72;;;-1.62;100.00
21638;BME280;10980;49.596;6.142;2023-02-28T04:59:06;99247.00;;;-1.63;100.00
21638;BME280;10980;49.596;6.142;2023-02-28T05:02:27;99251.50;;;-1.70;100.00
21638;BME280;10980;49.596;6.142;2023-02-28T05:05:52;99253.94;;;-1.64;100.00
21638;BME280;10980;49.596;6.142;2023-02-28T05:09:16;99257.44;;;-1.63;100.00
21638;BME280;10980;49.596;6.142;2023-02-28T05:12:38;99254.78;;;-1.62;100.00
21638;BME280;10980;49.596;6.142;2023-02-28T05:16:02;99251.31;;;-1.64;100.00
21638;BME280;10980;49.596;6.142;2023-02-28T05:19:24;99243.75;;;-1.71;100.00
21638;BME280;10980;49.596;6.142;2023-02-28T05:22:47;99248.94;;;-1.71;100.00
21638;BME280;10980;49.596;6.142;2023-02-28T05:26:14;99251.59;;;-1.73;100.00
21638;BME280;10980;49.596;6.142;2023-02-28T05:29:36;99252.56;;;-1.75;100.00
21638;BME280;10980;49.596;6.142;2023-02-28T05:33:11;99265.63;;;-1.77;100.00
21638;BME280;10980;49.596;6.142;2023-02-28T05:36:33;99253.34;;;-1.73;100.00
21638;BME280;10980;49.596;6.142;2023-02-28T05:40:00;99262.16;;;-1.77;100.00
21638;BME280;10980;49.596;6.142;2023-02-28T05:43:23;99255.25;;;-1.78;100.00
21638;BME280;10980;49.596;6.142;2023-02-28T05:46:47;99254.59;;;-1.87;100.00
21638;BME280;10980;49.596;6.142;2023-02-28T05:50:10;99248.34;;;-1.81;100.00
21638;BME280;10980;49.596;6.142;2023-02-28T05:53:34;99253.66;;;-1.84;100.00
21638;BME280;10980;49.596;6.142;2023-02-28T05:56:56;99251.31;;;-1.93;100.00
21638;BME280;10980;49.596;6.142;2023-02-28T06:00:18;99252.97;;;-1.91;100.00
21638;BME280;10980;49.596;6.142;2023-02-28T06:03:42;99256.38;;;-1.89;100.00
21638;BME280;10980;49.596;6.142;2023-02-28T06:07:04;99260.84;;;-1.92;100.00
21638;BME280;10980;49.596;6.142;2023-02-28T06:10:26;99258.47;;;-2.01;100.00
21638;BME280;10980;49.596;6.142;2023-02-28T06:13:48;99261.91;;;-2.01;100.00
21638;BME280;10980;49.596;6.142;2023-02-28T06:17:10;99268.94;;;-2.03;100.00
21638;BME280;10980;49.596;6.142;2023-02-28T06:20:32;99263.63;;;-2.00;100.00
21638;BME280;10980;49.596;6.142;2023-02-28T06:23:57;99277.31;;;-1.92;100.00
21638;BME280;10980;49.596;6.142;2023-02-28T06:27:20;99277.94;;;-2.16;100.00
21638;BME280;10980;49.596;6.142;2023-02-28T06:30:42;99274.66;;;-2.23;100.00
21638;BME280;10980;49.596;6.142;2023-02-28T06:34:14;99268.50;;;-1.88;100.00
21638;BME280;10980;49.596;6.142;2023-02-28T06:37:42;99271.75;;;-1.80;100.00
21638;BME280;10980;49.596;6.142;2023-02-28T06:41:10;99263.81;;;-2.06;100.00
21638;BME280;10980;49.596;6.142;2023-02-28T06:44:33;99278.91;;;-2.19;100.00
21638;BME280;10980;49.596;6.142;2023-02-28T06:47:57;99279.75;;;-2.18;100.00
21638;BME280;10980;49.596;6.142;2023-02-28T06:51:21;99291.06;;;-1.87;100.00
21638;BME280;10980;49.596;6.142;2023-02-28T06:54:45;99290.81;;;-2.10;100.00
21638;BME280;10980;49.596;6.142;2023-02-28T06:58:07;99289.03;;;-1.75;100.00
21638;BME280;10980;49.596;6.142;2023-02-28T07:01:47;99293.13;;;-1.99;100.00
21638;BME280;10980;49.596;6.142;2023-02-28T07:05:09;99298.47;;;-1.71;100.00
21638;BME280;10980;49.596;6.142;2023-02-28T07:08:35;99296.47;;;-1.62;100.00
21638;BME280;10980;49.596;6.142;2023-02-28T07:11:57;99308.28;;;-1.48;100.00
21638;BME280;10980;49.596;6.142;2023-02-28T07:15:19;99303.47;;;-1.64;100.00
21638;BME280;10980;49.596;6.142;2023-02-28T07:18:47;99310.28;;;-1.58;100.00
21638;BME280;10980;49.596;6.142;2023-02-28T07:22:11;99308.72;;;-1.33;100.00
21638;BME280;10980;49.596;6.142;2023-02-28T07:25:36;99317.16;;;-1.56;100.00
21638;BME280;10980;49.596;6.142;2023-02-28T07:28:58;99314.91;;;-1.07;100.00
21638;BME280;10980;49.596;6.142;2023-02-28T07:32:20;99322.47;;;-0.98;100.00
21638;BME280;10980;49.596;6.142;2023-02-28T07:35:42;99321.81;;;-0.77;100.00
21638;BME280;10980;49.596;6.142;2023-02-28T07:39:06;99319.69;;;-0.64;100.00
21638;BME280;10980;49.596;6.142;2023-02-28T07:42:29;99317.91;;;-0.36;100.00
21638;BME280;10980;49.596;6.142;2023-02-28T07:45:51;99328.00;;;-0.25;100.00
21638;BME280;10980;49.596;6.142;2023-02-28T07:49:13;99314.22;;;-0.04;100.00
21638;BME280;10980;49.596;6.142;2023-02-28T07:52:37;99326.53;;;0.19;100.00
21638;BME280;10980;49.596;6.142;2023-02-28T07:56:01;99306.94;;;0.31;100.00
21638;BME280;10980;49.596;6.142;2023-02-28T07:59:23;99302.59;;;0.55;100.00
21638;BME280;10980;49.596;6.142;2023-02-28T08:02:45;99309.09;;;0.68;100.00
21638;BME280;10980;49.596;6.142;2023-02-28T08:06:19;99316.63;;;0.77;100.00
21638;BME280;10980;49.596;6.142;2023-02-28T08:09:44;99314.03;;;0.99;100.00
21638;BME280;10980;49.596;6.142;2023-02-28T08:13:06;99317.56;;;1.22;100.00
21638;BME280;10980;49.596;6.142;2023-02-28T08:16:29;99336.44;;;1.30;100.00
21638;BME280;10980;49.596;6.142;2023-02-28T08:19:53;99319.75;;;1.54;100.00
21638;BME280;10980;49.596;6.142;2023-02-28T08:23:15;99321.72;;;1.49;100.00
21638;BME280;10980;49.596;6.142;2023-02-28T08:26:37;99324.09;;;1.55;100.00
21638;BME280;10980;49.596;6.142;2023-02-28T08:29:59;99314.75;;;1.70;100.00
21638;BME280;10980;49.596;6.142;2023-02-28T08:33:25;99314.88;;;1.67;100.00
21638;BME280;10980;49.596;6.142;2023-02-28T08:36:50;99312.69;;;1.56;100.00
21638;BME280;10980;49.596;6.142;2023-02-28T08:40:14;99317.44;;;1.68;100.00
21638;BME280;10980;49.596;6.142;2023-02-28T08:43:40;99312.44;;;1.84;100.00
21638;BME280;10980;49.596;6.142;2023-02-28T08:47:02;99303.56;;;2.08;100.00
21638;BME280;10980;49.596;6.142;2023-02-28T08:50:24;99308.19;;;2.02;100.00
21638;BME280;10980;49.596;6.142;2023-02-28T08:53:46;99302.66;;;1.88;100.00
21638;BME280;10980;49.596;6.142;2023-02-28T08:57:11;99297.03;;;1.97;100.00
21638;BME280;10980;49.596;6.142;2023-02-28T09:00:34;99304.00;;;1.98;100.00
21638;BME280;10980;49.596;6.142;2023-02-28T09:04:09;99305.91;;;2.15;100.00
21638;BME280;10980;49.596;6.142;2023-02-28T09:07:36;99305.72;;;2.39;100.00
21638;BME280;10980;49.596;6.142;2023-02-28T09:11:00;99308.31;;;2.60;100.00
21638;BME280;10980;49.596;6.142;2023-02-28T09:14:24;99295.25;;;2.77;100.00
21638;BME280;10980;49.596;6.142;2023-02-28T09:17:46;99295.19;;;2.79;100.00
21638;BME280;10980;49.596;6.142;2023-02-28T09:21:12;99298.41;;;2.85;100.00
21638;BME280;10980;49.596;6.142;2023-02-28T09:24:37;99293.41;;;2.79;100.00
21638;BME280;10980;49.596;6.142;2023-02-28T09:28:05;99298.41;;;2.85;100.00
21638;BME280;10980;49.596;6.142;2023-02-28T09:31:33;99310.16;;;2.58;99.56
21638;BME280;10980;49.596;6.142;2023-02-28T09:34:55;99302.47;;;2.53;99.24
21638;BME280;10980;49.596;6.142;2023-02-28T09:38:22;99298.34;;;2.87;96.64
21638;BME280;10980;49.596;6.142;2023-02-28T09:41:47;99294.72;;;2.89;94.72
21638;BME280;10980;49.596;6.142;2023-02-28T09:45:28;99299.63;;;3.16;92.27
21638;BME280;10980;49.596;6.142;2023-02-28T09:48:54;99294.69;;;3.27;89.36
21638;BME280;10980;49.596;6.142;2023-02-28T09:52:33;99322.97;;;3.22;83.18
21638;BME280;10980;49.596;6.142;2023-02-28T09:56:05;99298.22;;;3.27;83.18
21638;BME280;10980;49.596;6.142;2023-02-28T09:59:58;99311.31;;;3.09;80.16
21638;BME280;10980;49.596;6.142;2023-02-28T10:04:02;99307.66;;;3.32;79.27
21638;BME280;10980;49.596;6.142;2023-02-28T10:11:06;99287.75;;;3.07;77.54
21638;BME280;10980;49.596;6.142;2023-02-28T10:14:32;99286.34;;;3.00;79.90
21638;BME280;10980;49.596;6.142;2023-02-28T10:18:11;99290.66;;;3.20;80.03
21638;BME280;10980;49.596;6.142;2023-02-28T10:21:58;99287.00;;;3.41;79.17
21638;BME280;10980;49.596;6.142;2023-02-28T10:25:29;99296.63;;;3.05;78.24
21638;BME280;10980;49.596;6.142;2023-02-28T10:28:52;99287.28;;;2.99;79.58
21638;BME280;10980;49.596;6.142;2023-02-28T10:32:23;99292.00;;;3.10;80.11
21638;BME280;10980;49.596;6.142;2023-02-28T10:35:50;99291.38;;;3.05;80.89
21638;BME280;10980;49.596;6.142;2023-02-28T10:39:42;99284.78;;;3.15;80.05
21638;BME280;10980;49.596;6.142;2023-02-28T10:46:41;99277.53;;;2.82;81.57
21638;BME280;10980;49.596;6.142;2023-02-28T10:50:26;99275.81;;;3.19;82.21
21638;BME280;10980;49.596;6.142;2023-02-28T10:53:55;99304.00;;;3.34;80.66
21638;BME280;10980;49.596;6.142;2023-02-28T10:57:24;99267.56;;;3.26;80.78
21638;BME280;10980;49.596;6.142;2023-02-28T11:00:46;99260.28;;;3.50;79.45
21638;BME280;10980;49.596;6.142;2023-02-28T11:04:31;99265.13;;;3.59;79.61
21638;BME280;10980;49.596;6.142;2023-02-28T11:08:20;99263.66;;;3.88;78.86
21638;BME280;10980;49.596;6.142;2023-02-28T11:11:45;99270.47;;;3.93;76.89
21638;BME280;10980;49.596;6.142;2023-02-28T11:15:25;99254.03;;;4.39;75.86
21638;BME280;10980;49.596;6.142;2023-02-28T11:18:50;99275.13;;;4.55;73.32
21638;BME280;10980;49.596;6.142;2023-02-28T11:22:44;99270.06;;;3.83;73.55
21638;BME280;10980;49.596;6.142;2023-02-28T11:26:06;99275.63;;;3.59;76.53
21638;BME280;10980;49.596;6.142;2023-02-28T11:29:33;99239.97;;;3.71;77.95
21638;BME280;10980;49.596;6.142;2023-02-28T11:32:58;99250.25;;;4.28;77.25
21638;BME280;10980;49.596;6.142;2023-02-28T11:36:29;99230.94;;;4.77;73.97
21638;BME280;10980;49.596;6.142;2023-02-28T11:39:55;99239.31;;;4.68;72.42
21638;BME280;10980;49.596;6.142;2023-02-28T11:46:52;99243.66;;;4.36;71.77
21638;BME280;10980;49.596;6.142;2023-02-28T11:50:41;99236.00;;;4.65;71.09
21638;BME280;10980;49.596;6.142;2023-02-28T11:54:23;99236.50;;;4.71;71.01
21638;BME280;10980;49.596;6.142;2023-02-28T12:05:46;99235.72;;;4.21;70.45
21638;BME280;10980;49.596;6.142;2023-02-28T12:13:21;99220.69;;;5.34;65.52
21638;BME280;10980;49.596;6.142;2023-02-28T12:21:34;99234.41;;;5.25;60.10
21638;BME280;10980;49.596;6.142;2023-02-28T12:25:51;99228.59;;;5.34;58.72
21638;BME280;10980;49.596;6.142;2023-02-28T12:29:31;99240.19;;;4.36;62.50
21638;BME280;10980;49.596;6.142;2023-02-28T12:33:20;99235.16;;;4.64;61.86
21638;BME280;10980;49.596;6.142;2023-02-28T12:36:51;99223.56;;;4.51;62.45
21638;BME280;10980;49.596;6.142;2023-02-28T12:40:24;99254.44;;;4.65;62.41
21638;BME280;10980;49.596;6.142;2023-02-28T12:44:07;99222.84;;;4.81;61.82
21638;BME280;10980;49.596;6.142;2023-02-28T12:47:33;99227.94;;;5.15;60.08
21638;BME280;10980;49.596;6.142;2023-02-28T12:50:56;99222.69;;;4.84;58.59
21638;BME280;10980;49.596;6.142;2023-02-28T12:54:54;99219.59;;;5.38;57.52
21638;BME280;10980;49.596;6.142;2023-02-28T12:58:47;99215.28;;;5.22;56.96
21638;BME280;10980;49.596;6.142;2023-02-28T13:06:38;99210.19;;;5.03;57.58
21638;BME280;10980;49.596;6.142;2023-02-28T13:10:05;99211.56;;;5.10;58.82
21638;BME280;10980;49.596;6.142;2023-02-28T13:13:30;99202.88;;;4.76;59.40
21638;BME280;10980;49.596;6.142;2023-02-28T13:17:24;99202.25;;;4.56;59.90
21638;BME280;10980;49.596;6.142;2023-02-28T13:20:48;99206.91;;;4.51;62.06
21638;BME280;10980;49.596;6.142;2023-02-28T13:27:57;99191.72;;;4.23;63.28
21638;BME280;10980;49.596;6.142;2023-02-28T13:31:22;99198.88;;;4.21;62.85
21638;BME280;10980;49.596;6.142;2023-02-28T13:35:37;99201.16;;;4.27;61.85
21638;BME280;10980;49.596;6.142;2023-02-28T13:39:55;99199.03;;;4.66;61.89
21638;BME280;10980;49.596;6.142;2023-02-28T13:43:18;99184.59;;;4.89;59.44
21638;BME280;10980;49.596;6.142;2023-02-28T13:50:38;99187.22;;;5.05;57.78
21638;BME280;10980;49.596;6.142;2023-02-28T13:54:16;99174.22;;;5.02;59.02
21638;BME280;10980;49.596;6.142;2023-02-28T14:01:59;99179.31;;;5.05;58.11
21638;BME280;10980;49.596;6.142;2023-02-28T14:05:32;99189.28;;;4.68;58.69
21638;BME280;10980;49.596;6.142;2023-02-28T14:09:24;99177.53;;;4.58;58.12
21638;BME280;10980;49.596;6.142;2023-02-28T14:12:55;99188.72;;;4.46;59.40
21638;BME280;10980;49.596;6.142;2023-02-28T14:16:24;99181.09;;;4.57;61.22
21638;BME280;10980;49.596;6.142;2023-02-28T14:19:49;99181.28;;;4.86;59.38
21638;BME280;10980;49.596;6.142;2023-02-28T14:23:47;99185.38;;;5.07;57.70
21638;BME280;10980;49.596;6.142;2023-02-28T14:27:35;99180.41;;;5.17;57.30
21638;BME280;10980;49.596;6.142;2023-02-28T14:31:25;99180.00;;;5.24;56.88
21638;BME280;10980;49.596;6.142;2023-02-28T14:35:18;99183.91;;;5.17;56.02
21638;BME280;10980;49.596;6.142;2023-02-28T14:39:14;99179.50;;;5.02;56.56
21638;BME280;10980;49.596;6.142;2023-02-28T14:42:37;99183.34;;;4.81;58.25
21638;BME280;10980;49.596;6.142;2023-02-28T14:46:06;99177.97;;;4.82;58.33
21638;BME280;10980;49.596;6.142;2023-02-28T14:49:42;99181.72;;;4.62;60.01
21638;BME280;10980;49.596;6.142;2023-02-28T14:53:18;99179.94;;;4.78;59.70
21638;BME280;10980;49.596;6.142;2023-02-28T14:56:43;99179.31;;;4.73;59.93
21638;BME280;10980;49.596;6.142;2023-02-28T15:00:47;99180.97;;;4.92;60.51
21638;BME280;10980;49.596;6.142;2023-02-28T15:04:26;99175.94;;;4.87;60.41
21638;BME280;10980;49.596;6.142;2023-02-28T15:08:15;99162.84;;;4.86;59.37
21638;BME280;10980;49.596;6.142;2023-02-28T15:11:49;99158.78;;;4.80;59.41
21638;BME280;10980;49.596;6.142;2023-02-28T15:15:17;99179.94;;;4.78;60.34
21638;BME280;10980;49.596;6.142;2023-02-28T15:22:20;99169.28;;;4.33;61.41
21638;BME280;10980;49.596;6.142;2023-02-28T15:25:52;99159.06;;;4.27;62.97
21638;BME280;10980;49.596;6.142;2023-02-28T15:36:36;99173.63;;;4.65;63.07
21638;BME280;10980;49.596;6.142;2023-02-28T15:40:32;99172.16;;;4.60;61.98
21638;BME280;10980;49.596;6.142;2023-02-28T15:47:49;99165.47;;;4.54;62.96
21638;BME280;10980;49.596;6.142;2023-02-28T15:51:25;99167.00;;;4.58;63.36
21638;BME280;10980;49.596;6.142;2023-02-28T15:54:51;99168.69;;;4.59;63.62
21638;BME280;10980;49.596;6.142;2023-02-28T15:58:21;99165.13;;;4.60;63.17
21638;BME280;10980;49.596;6.142;2023-02-28T16:01:45;99162.25;;;4.49;63.67
21638;BME280;10980;49.596;6.142;2023-02-28T16:05:34;99167.44;;;4.51;64.49
21638;BME280;10980;49.596;6.142;2023-02-28T16:08:57;99166.75;;;4.47;63.57
21638;BME280;10980;49.596;6.142;2023-02-28T16:12:21;99181.25;;;4.38;64.25
21638;BME280;10980;49.596;6.142;2023-02-28T16:15:44;99177.59;;;4.41;64.89
21638;BME280;10980;49.596;6.142;2023-02-28T16:19:12;99179.63;;;4.36;65.68
21638;BME280;10980;49.596;6.142;2023-02-28T16:22:34;99184.53;;;4.26;66.86
21638;BME280;10980;49.596;6.142;2023-02-28T16:26:04;99198.53;;;4.27;66.86
21638;BME280;10980;49.596;6.142;2023-02-28T16:29:34;99193.59;;;4.21;67.10
21638;BME280;10980;49.596;6.142;2023-02-28T16:32:58;99199.81;;;3.85;68.63
21638;BME280;10980;49.596;6.142;2023-02-28T16:36:23;99208.41;;;3.71;70.82
21638;BME280;10980;49.596;6.142;2023-02-28T16:39:48;99202.06;;;3.93;70.06
21638;BME280;10980;49.596;6.142;2023-02-28T16:43:23;99198.44;;;3.95;69.97
21638;BME280;10980;49.596;6.142;2023-02-28T16:46:48;99200.63;;;3.87;71.02
21638;BME280;10980;49.596;6.142;2023-02-28T16:50:30;99214.50;;;3.72;71.38
21638;BME280;10980;49.596;6.142;2023-02-28T16:53:54;99213.91;;;3.67;72.00
21638;BME280;10980;49.596;6.142;2023-02-28T16:57:22;99220.25;;;3.63;73.02
21638;BME280;10980;49.596;6.142;2023-02-28T17:00:44;99217.63;;;3.45;74.32
21638;BME280;10980;49.596;6.142;2023-02-28T17:04:10;99225.78;;;3.39;75.75
21638;BME280;10980;49.596;6.142;2023-02-28T17:07:34;99225.53;;;3.26;76.19
21638;BME280;10980;49.596;6.142;2023-02-28T17:10:56;99233.47;;;3.25;77.20
21638;BME280;10980;49.596;6.142;2023-02-28T17:14:17;99239.03;;;3.19;77.76
21638;BME280;10980;49.596;6.142;2023-02-28T17:17:41;99239.38;;;3.11;78.38
21638;BME280;10980;49.596;6.142;2023-02-28T17:21:13;99252.03;;;2.65;81.24
21638;BME280;10980;49.596;6.142;2023-02-28T17:24:36;99258.56;;;2.57;83.63
21638;BME280;10980;49.596;6.142;2023-02-28T17:27:57;99258.25;;;2.44;84.78
21638;BME280;10980;49.596;6.142;2023-02-28T17:31:19;99267.31;;;2.76;84.96
21638;BME280;10980;49.596;6.142;2023-02-28T17:34:47;99268.53;;;2.49;85.89
21638;BME280;10980;49.596;6.142;2023-02-28T17:38:18;99277.13;;;2.52;85.86
21638;BME280;10980;49.596;6.142;2023-02-28T17:41:41;99270.75;;;2.39;86.61
21638;BME280;10980;49.596;6.142;2023-02-28T17:45:03;99288.47;;;2.14;89.63
21638;BME280;10980;49.596;6.142;2023-02-28T17:48:25;99277.38;;;2.27;88.54
21638;BME280;10980;49.596;6.142;2023-02-28T17:51:48;99285.91;;;2.12;89.53
21638;BME280;10980;49.596;6.142;2023-02-28T17:55:22;99283.44;;;2.07;90.63
21638;BME280;10980;49.596;6.142;2023-02-28T17:58:43;99293.06;;;2.08;91.33
21638;BME280;10980;49.596;6.142;2023-02-28T18:02:07;99296.13;;;1.98;92.27
21638;BME280;10980;49.596;6.142;2023-02-28T18:05:31;99299.06;;;1.90;92.97
21638;BME280;10980;49.596;6.142;2023-02-28T18:08:55;99307.69;;;1.92;93.78
21638;BME280;10980;49.596;6.142;2023-02-28T18:12:16;99306.84;;;1.92;93.58
21638;BME280;10980;49.596;6.142;2023-02-28T18:15:38;99299.25;;;1.86;94.25
21638;BME280;10980;49.596;6.142;2023-02-28T18:19:07;99296.69;;;1.84;94.49
21638;BME280;10980;49.596;6.142;2023-02-28T18:22:38;99315.84;;;1.86;94.98
21638;BME280;10980;49.596;6.142;2023-02-28T18:26:08;99311.19;;;1.93;94.73
21638;BME280;10980;49.596;6.142;2023-02-28T18:29:30;99310.66;;;1.85;94.68
21638;BME280;10980;49.596;6.142;2023-02-28T18:32:58;99317.66;;;1.84;95.22
21638;BME280;10980;49.596;6.142;2023-02-28T18:36:27;99316.09;;;1.80;95.24
21638;BME280;10980;49.596;6.142;2023-02-28T18:39:50;99318.44;;;1.66;96.33
21638;BME280;10980;49.596;6.142;2023-02-28T18:43:13;99306.00;;;1.49;97.92
21638;BME280;10980;49.596;6.142;2023-02-28T18:46:36;99311.81;;;1.34;100.00
21638;BME280;10980;49.596;6.142;2023-02-28T18:50:00;99317.81;;;1.37;100.00
21638;BME280;10980;49.596;6.142;2023-02-28T18:53:23;99325.94;;;1.30;100.00
21638;BME280;10980;49.596;6.142;2023-02-28T18:56:45;99321.44;;;1.33;100.00
21638;BME280;10980;49.596;6.142;2023-02-28T19:00:19;99321.44;;;1.33;100.00
21638;BME280;10980;49.596;6.142;2023-02-28T19:03:44;99320.44;;;1.37;100.00
21638;BME280;10980;49.596;6.142;2023-02-28T19:07:07;99324.06;;;1.33;100.00
21638;BME280;10980;49.596;6.142;2023-02-28T19:10:29;99331.31;;;1.27;100.00
21638;BME280;10980;49.596;6.142;2023-02-28T19:13:51;99328.25;;;1.15;100.00
21638;BME280;10980;49.596;6.142;2023-02-28T19:17:13;99325.16;;;1.06;100.00
21638;BME280;10980;49.596;6.142;2023-02-28T19:20:38;99328.38;;;1.12;100.00
21638;BME280;10980;49.596;6.142;2023-02-28T19:24:02;99328.72;;;1.03;100.00
21638;BME280;10980;49.596;6.142;2023-02-28T19:27:26;99330.00;;;1.15;100.00
21638;BME280;10980;49.596;6.142;2023-02-28T19:30:50;99327.69;;;1.07;100.00
21638;BME280;10980;49.596;6.142;2023-02-28T19:34:14;99328.88;;;0.99;100.00
21638;BME280;10980;49.596;6.142;2023-02-28T19:37:38;99336.00;;;0.95;100.00
21638;BME280;10980;49.596;6.142;2023-02-28T19:41:09;99323.59;;;1.00;100.00